createdAt,value
2023-10-21T00:01:40.403Z,95.20
2023-10-21T00:04:07.442Z,95.50
2023-10-21T00:06:34.353Z,95.60
2023-10-21T00:09:01.199Z,95.40
2023-10-21T00:11:28.255Z,95.10
2023-10-21T00:13:55.072Z,95.00
2023-10-21T00:16:21.887Z,95.00
2023-10-21T00:18:48.675Z,95.20
2023-10-21T00:21:15.744Z,95.20
2023-10-21T00:23:42.659Z,95.20
2023-10-21T00:26:09.485Z,95.20
2023-10-21T00:28:36.237Z,95.30
2023-10-21T00:31:04.587Z,95.20
2023-10-21T00:33:32.056Z,95.30
2023-10-21T00:35:59.007Z,95.30
2023-10-21T00:38:25.918Z,95.20
2023-10-21T00:40:57.692Z,95.10
2023-10-21T00:43:37.981Z,95.20
2023-10-21T00:46:21.361Z,95.20
2023-10-21T00:48:49.416Z,95.20
2023-10-21T00:51:17.171Z,95.00
2023-10-21T00:53:44.571Z,95.10
2023-10-21T00:56:11.915Z,95.40
2023-10-21T00:58:38.943Z,95.30
2023-10-21T01:01:07.587Z,95.20
2023-10-21T01:03:36.449Z,95.30
2023-10-21T01:06:03.967Z,95.20
2023-10-21T01:08:31.011Z,95.10
2023-10-21T01:10:59.451Z,94.80
2023-10-21T01:13:26.639Z,94.70
2023-10-21T01:15:53.553Z,94.60
2023-10-21T01:18:22.343Z,94.80
2023-10-21T01:20:53.579Z,94.80
2023-10-21T01:23:20.421Z,94.90
2023-10-21T01:25:47.213Z,95.00
2023-10-21T01:28:14.341Z,94.80
2023-10-21T01:30:41.148Z,94.70
2023-10-21T01:33:08.174Z,95.00
2023-10-21T01:35:35.020Z,94.90
2023-10-21T01:38:01.887Z,94.70
2023-10-21T01:40:29.171Z,94.80
2023-10-21T01:42:55.998Z,94.90
2023-10-21T01:46:15.861Z,95.10
2023-10-21T01:48:42.837Z,95.20
2023-10-21T01:51:09.799Z,95.00
2023-10-21T01:53:36.707Z,95.00
2023-10-21T01:56:04.278Z,94.90
2023-10-21T01:58:33.152Z,95.00
2023-10-21T02:01:00.224Z,95.10
2023-10-21T02:03:27.956Z,95.20
2023-10-21T02:05:54.957Z,95.10
2023-10-21T02:08:21.831Z,95.20
2023-10-21T02:10:48.624Z,95.10
2023-10-21T02:13:15.398Z,95.10
2023-10-21T02:15:42.358Z,94.90
2023-10-21T02:18:10.777Z,94.70
2023-10-21T02:20:38.675Z,94.70
2023-10-21T02:23:05.495Z,94.60
2023-10-21T02:25:33.159Z,94.40
2023-10-21T02:28:02.261Z,94.50
2023-10-21T02:30:30.238Z,94.50
2023-10-21T02:32:57.127Z,94.60
2023-10-21T02:35:24.037Z,94.70
2023-10-21T02:37:50.834Z,95.10
2023-10-21T02:40:17.868Z,95.20
2023-10-21T02:42:45.387Z,95.40
2023-10-21T02:45:12.417Z,95.40
2023-10-21T02:47:40.196Z,95.40
2023-10-21T02:50:08.269Z,95.30
2023-10-21T02:52:41.281Z,95.30
2023-10-21T02:55:08.513Z,95.10
2023-10-21T02:57:35.975Z,95.10
2023-10-21T03:00:06.075Z,95.00
2023-10-21T03:02:33.426Z,95.10
2023-10-21T03:05:00.322Z,95.20
2023-10-21T03:07:27.172Z,95.20
2023-10-21T03:09:53.955Z,95.10
2023-10-21T03:12:20.840Z,95.10
2023-10-21T03:14:47.745Z,95.00
2023-10-21T03:17:15.318Z,95.20
2023-10-21T03:19:42.105Z,95.10
2023-10-21T03:22:08.865Z,95.00
2023-10-21T03:24:35.790Z,95.10
2023-10-21T03:27:03.417Z,95.10
2023-10-21T03:29:30.241Z,95.10
2023-10-21T03:31:57.028Z,95.10
2023-10-21T03:34:23.796Z,94.90
2023-10-21T03:36:50.547Z,94.70
2023-10-21T03:39:17.351Z,94.60
2023-10-21T03:41:44.157Z,94.50
2023-10-21T03:44:10.935Z,94.70
2023-10-21T03:46:37.926Z,94.90
2023-10-21T03:49:04.848Z,94.80
2023-10-21T03:51:31.816Z,94.90
2023-10-21T03:53:59.035Z,94.90
2023-10-21T03:56:26.058Z,94.80
2023-10-21T03:58:52.838Z,95.10
2023-10-21T04:01:21.567Z,95.40
2023-10-21T04:03:48.782Z,95.50
2023-10-21T04:06:17.316Z,95.40
2023-10-21T04:08:44.221Z,95.30
2023-10-21T04:11:10.982Z,95.50
2023-10-21T04:13:37.825Z,95.60
2023-10-21T04:16:05.080Z,95.60
2023-10-21T04:18:32.168Z,95.50
2023-10-21T04:20:59.001Z,95.40
2023-10-21T04:23:25.998Z,95.30
2023-10-21T04:25:53.690Z,95.30
2023-10-21T04:28:20.542Z,95.20
2023-10-21T04:30:47.895Z,95.10
2023-10-21T04:33:14.916Z,95.10
2023-10-21T04:35:41.986Z,95.10
2023-10-21T04:38:10.971Z,95.00
2023-10-21T04:40:37.889Z,95.10
2023-10-21T04:43:04.850Z,95.20
2023-10-21T04:45:32.071Z,95.30
2023-10-21T04:47:58.977Z,95.50
2023-10-21T04:50:27.144Z,95.50
2023-10-21T04:52:55.191Z,95.50
2023-10-21T04:55:22.264Z,95.20
2023-10-21T04:57:49.083Z,95.10
2023-10-21T05:00:16.052Z,95.20
2023-10-21T05:02:43.020Z,95.40
2023-10-21T05:05:10.620Z,95.50
2023-10-21T05:07:37.463Z,95.60
2023-10-21T05:10:05.804Z,95.60
2023-10-21T05:12:32.756Z,95.60
2023-10-21T05:14:59.633Z,95.60
2023-10-21T05:17:26.560Z,95.60
2023-10-21T05:19:53.338Z,95.70
2023-10-21T05:22:20.131Z,95.50
2023-10-21T05:24:46.905Z,95.40
2023-10-21T05:27:13.686Z,95.50
2023-10-21T05:29:40.658Z,95.50
2023-10-21T05:32:08.521Z,95.70
2023-10-21T05:34:35.719Z,95.60
2023-10-21T05:37:02.855Z,95.30
2023-10-21T05:39:29.821Z,95.00
2023-10-21T05:41:56.769Z,94.80
2023-10-21T05:44:33.854Z,94.70
2023-10-21T05:47:10.463Z,93.80
2023-10-21T05:49:37.522Z,94.00
2023-10-21T05:52:04.409Z,94.00
2023-10-21T05:54:32.776Z,93.80
2023-10-21T05:56:59.624Z,93.70
2023-10-21T05:59:26.418Z,93.50
2023-10-21T06:01:53.204Z,93.60
2023-10-21T06:04:20.101Z,93.20
2023-10-21T06:06:47.013Z,93.20
2023-10-21T06:09:14.057Z,93.30
2023-10-21T06:11:41.022Z,93.30
2023-10-21T06:14:07.821Z,93.20
2023-10-21T06:16:34.704Z,93.20
2023-10-21T06:19:01.558Z,93.20
2023-10-21T06:21:28.419Z,93.20
2023-10-21T06:23:55.290Z,93.20
2023-10-21T06:26:22.691Z,93.10
2023-10-21T06:28:49.689Z,93.00
2023-10-21T06:31:16.772Z,93.00
2023-10-21T06:33:43.771Z,92.90
2023-10-21T06:36:10.593Z,92.60
2023-10-21T06:38:37.734Z,92.20
2023-10-21T06:41:14.257Z,92.10
2023-10-21T06:43:41.995Z,92.00
2023-10-21T06:46:09.114Z,91.90
2023-10-21T06:48:36.052Z,92.00
2023-10-21T06:51:02.949Z,92.00
2023-10-21T06:53:29.981Z,91.90
2023-10-21T06:55:57.291Z,91.70
2023-10-21T06:58:24.118Z,91.50
2023-10-21T07:00:52.027Z,91.20
2023-10-21T07:03:18.876Z,91.00
2023-10-21T07:05:46.325Z,91.00
2023-10-21T07:08:14.224Z,90.90
2023-10-21T07:10:41.033Z,90.90
2023-10-21T07:13:09.492Z,90.80
2023-10-21T07:15:36.421Z,90.30
2023-10-21T07:18:03.564Z,90.20
2023-10-21T07:20:30.502Z,90.10
2023-10-21T07:22:57.335Z,89.60
2023-10-21T07:25:25.165Z,89.50
2023-10-21T07:27:52.834Z,89.30
2023-10-21T07:30:20.291Z,88.90
2023-10-21T07:32:48.028Z,88.70
2023-10-21T07:35:15.641Z,88.50
2023-10-21T07:37:42.704Z,88.40
2023-10-21T07:40:11.049Z,88.30
2023-10-21T07:42:38.241Z,86.90
2023-10-21T07:45:06.194Z,87.00
2023-10-21T07:47:37.787Z,84.70
2023-10-21T07:50:08.519Z,84.50
2023-10-21T07:52:38.882Z,84.80
2023-10-21T07:55:06.744Z,83.40
2023-10-21T07:57:33.779Z,82.50
2023-10-21T08:00:01.549Z,81.20
2023-10-21T08:02:28.873Z,82.10
2023-10-21T08:04:56.512Z,80.30
2023-10-21T08:07:23.430Z,79.70
2023-10-21T08:09:50.711Z,79.90
2023-10-21T08:12:17.940Z,80.10
2023-10-21T08:14:44.997Z,78.10
2023-10-21T08:17:12.103Z,78.90
2023-10-21T08:19:39.037Z,78.40
2023-10-21T08:22:07.202Z,78.60
2023-10-21T08:24:34.539Z,79.00
2023-10-21T08:27:02.168Z,77.80
2023-10-21T08:29:29.302Z,78.40
2023-10-21T08:31:56.132Z,78.20
2023-10-21T08:34:23.638Z,78.10
2023-10-21T08:36:50.965Z,77.80
2023-10-21T08:39:18.012Z,76.10
2023-10-21T08:41:44.961Z,76.80
2023-10-21T08:44:13.166Z,77.80
2023-10-21T08:46:40.185Z,74.70
2023-10-21T08:49:09.296Z,76.20
2023-10-21T08:51:36.753Z,75.70
2023-10-21T08:54:05.137Z,75.80
2023-10-21T08:56:33.641Z,74.60
2023-10-21T08:59:02.159Z,74.30
2023-10-21T09:01:29.497Z,74.50
2023-10-21T09:03:57.696Z,73.80
2023-10-21T09:06:25.478Z,74.50
2023-10-21T09:08:52.405Z,74.70
2023-10-21T09:11:26.793Z,73.80
2023-10-21T09:13:59.916Z,74.40
2023-10-21T09:16:29.962Z,75.40
2023-10-21T09:19:02.646Z,73.70
2023-10-21T09:21:38.881Z,74.20
2023-10-21T09:24:13.331Z,72.60
2023-10-21T09:26:42.002Z,76.60
2023-10-21T09:29:11.500Z,75.30
2023-10-21T09:31:50.002Z,74.20
2023-10-21T09:34:29.206Z,73.20
2023-10-21T09:37:01.290Z,73.90
2023-10-21T09:39:30.466Z,72.00
2023-10-21T09:42:00.825Z,72.40
2023-10-21T09:44:28.241Z,70.40
2023-10-21T09:46:57.013Z,69.40
2023-10-21T09:49:29.121Z,71.30
2023-10-21T09:52:10.793Z,68.60
2023-10-21T09:54:46.566Z,68.40
2023-10-21T09:57:14.352Z,69.80
2023-10-21T09:59:42.039Z,68.90
2023-10-21T10:02:10.848Z,67.60
2023-10-21T10:04:39.527Z,68.80
2023-10-21T10:07:14.658Z,68.90
2023-10-21T10:09:48.657Z,67.30
2023-10-21T10:12:27.063Z,66.40
2023-10-21T10:14:58.355Z,67.40
2023-10-21T10:17:52.208Z,68.90
2023-10-21T10:20:22.000Z,70.40
2023-10-21T10:22:55.552Z,67.10
2023-10-21T10:25:26.393Z,66.10
2023-10-21T10:27:58.637Z,67.80
2023-10-21T10:30:31.753Z,67.60
2023-10-21T10:33:07.601Z,67.80
2023-10-21T10:35:40.848Z,67.40
2023-10-21T10:38:28.995Z,67.20
2023-10-21T10:41:13.211Z,68.70
2023-10-21T10:43:44.745Z,67.80
2023-10-21T10:46:12.514Z,68.30
2023-10-21T10:48:40.454Z,67.10
2023-10-21T10:51:13.868Z,66.00
2023-10-21T10:53:41.091Z,65.60
2023-10-21T10:56:11.078Z,66.30
2023-10-21T10:58:39.336Z,64.60
2023-10-21T11:01:09.082Z,66.10
2023-10-21T11:03:37.780Z,66.00
2023-10-21T11:06:04.916Z,67.60
2023-10-21T11:08:32.092Z,65.70
2023-10-21T11:11:06.236Z,65.80
2023-10-21T11:13:34.172Z,64.40
2023-10-21T11:16:06.131Z,64.90
2023-10-21T11:18:33.886Z,64.30
2023-10-21T11:21:00.751Z,65.30
2023-10-21T11:23:29.281Z,63.00
2023-10-21T11:25:57.808Z,66.70
2023-10-21T11:28:28.536Z,62.90
2023-10-21T11:30:57.060Z,63.30
2023-10-21T11:33:23.996Z,62.60
2023-10-21T11:35:52.547Z,60.10
2023-10-21T11:38:19.685Z,59.60
2023-10-21T11:40:47.357Z,60.20
2023-10-21T11:43:18.066Z,62.60
2023-10-21T11:45:47.644Z,61.60
2023-10-21T11:48:17.833Z,57.10
2023-10-21T11:50:46.196Z,58.10
2023-10-21T11:53:13.852Z,60.40
2023-10-21T11:55:53.532Z,56.00
2023-10-21T11:58:42.940Z,57.30
2023-10-21T12:01:32.223Z,58.70
2023-10-21T12:04:11.160Z,58.10
2023-10-21T12:06:47.109Z,60.20
2023-10-21T12:09:32.397Z,60.80
2023-10-21T12:12:11.370Z,60.40
2023-10-21T12:14:57.281Z,57.50
2023-10-21T12:17:24.206Z,53.40
2023-10-21T12:20:10.154Z,52.50
2023-10-21T12:22:52.208Z,54.30
2023-10-21T12:25:44.944Z,56.20
2023-10-21T12:28:34.800Z,54.70
2023-10-21T12:31:20.760Z,58.10
2023-10-21T12:34:06.249Z,57.80
2023-10-21T12:36:34.398Z,54.90
2023-10-21T12:39:21.878Z,53.80
2023-10-21T12:41:55.043Z,53.00
2023-10-21T12:44:27.777Z,54.80
2023-10-21T12:46:59.047Z,56.60
2023-10-21T12:49:28.438Z,58.00
2023-10-21T12:51:57.057Z,56.60
2023-10-21T12:54:24.209Z,59.10
2023-10-21T12:56:51.880Z,58.00
2023-10-21T12:59:20.557Z,62.30
2023-10-21T13:01:47.510Z,58.20
2023-10-21T13:04:14.659Z,60.90
2023-10-21T13:06:43.695Z,58.20
2023-10-21T13:09:28.826Z,57.40
2023-10-21T13:11:55.919Z,58.70
2023-10-21T13:14:22.935Z,58.10
2023-10-21T13:16:49.858Z,57.60
2023-10-21T13:19:17.266Z,58.90
2023-10-21T13:21:46.628Z,58.40
2023-10-21T13:24:13.621Z,57.10
2023-10-21T13:26:40.789Z,55.10
2023-10-21T13:29:07.584Z,54.10
2023-10-21T13:31:35.013Z,55.80
2023-10-21T13:34:03.994Z,56.30
2023-10-21T13:36:34.620Z,58.80
2023-10-21T13:39:02.943Z,60.50
2023-10-21T13:41:30.378Z,61.60
2023-10-21T13:43:59.460Z,61.90
2023-10-21T13:46:26.336Z,60.60
2023-10-21T13:48:54.506Z,60.90
2023-10-21T13:51:21.660Z,63.60
2023-10-21T13:53:48.738Z,62.40
2023-10-21T13:56:15.509Z,65.70
2023-10-21T13:58:43.072Z,65.20
2023-10-21T14:01:13.735Z,64.80
2023-10-21T14:03:41.253Z,66.50
2023-10-21T14:06:08.298Z,66.30
2023-10-21T14:08:35.102Z,66.70
2023-10-21T14:11:07.078Z,65.60
2023-10-21T14:13:35.159Z,65.10
2023-10-21T14:16:06.539Z,68.00
2023-10-21T14:18:34.280Z,65.00
2023-10-21T14:21:01.445Z,66.90
2023-10-21T14:23:29.621Z,64.30
2023-10-21T14:26:00.641Z,65.10
2023-10-21T14:28:29.412Z,66.20
2023-10-21T14:30:58.713Z,67.10
2023-10-21T14:33:33.068Z,66.80
2023-10-21T14:36:08.246Z,66.50
2023-10-21T14:38:36.047Z,65.10
2023-10-21T14:41:03.836Z,57.80
2023-10-21T14:43:32.855Z,52.40
2023-10-21T14:45:59.713Z,45.90
2023-10-21T14:48:26.630Z,45.50
2023-10-21T14:50:53.435Z,44.20
2023-10-21T14:53:20.322Z,45.70
2023-10-21T14:58:17.807Z,45.00
2023-10-21T15:00:45.083Z,46.40
2023-10-21T15:03:21.014Z,45.50
2023-10-21T15:05:48.746Z,46.70
2023-10-21T15:08:20.749Z,47.90
2023-10-21T15:10:48.889Z,45.70
2023-10-21T15:13:15.673Z,48.60
2023-10-21T15:15:44.205Z,50.50
2023-10-21T15:18:11.899Z,51.80
2023-10-21T15:20:39.246Z,53.40
2023-10-21T15:23:06.380Z,57.40
2023-10-21T15:25:34.390Z,60.50
2023-10-21T15:28:01.526Z,63.00
2023-10-21T15:30:29.229Z,65.70
2023-10-21T15:32:57.793Z,66.90
2023-10-21T15:35:26.372Z,66.90
2023-10-21T15:37:53.968Z,67.00
2023-10-21T15:40:21.941Z,69.30
2023-10-21T15:42:50.520Z,71.30
2023-10-21T15:45:18.198Z,72.80
2023-10-21T15:47:45.321Z,74.40
2023-10-21T15:50:12.194Z,76.10
2023-10-21T15:52:39.766Z,75.40
2023-10-21T15:55:07.160Z,75.60
2023-10-21T15:57:34.694Z,75.90
2023-10-21T16:00:12.901Z,75.90
2023-10-21T16:02:40.862Z,76.40
2023-10-21T16:05:08.123Z,76.70
2023-10-21T16:07:50.227Z,77.20
2023-10-21T16:10:21.704Z,77.90
2023-10-21T16:12:48.496Z,78.50
2023-10-21T16:15:15.546Z,79.20
2023-10-21T16:17:42.467Z,79.80
2023-10-21T16:20:10.030Z,80.10
2023-10-21T16:22:37.872Z,80.50
2023-10-21T16:25:05.436Z,81.40
2023-10-21T16:27:32.397Z,81.20
2023-10-21T16:29:59.956Z,81.20
2023-10-21T16:32:26.788Z,81.60
2023-10-21T16:34:53.633Z,81.80
2023-10-21T16:37:20.722Z,81.80
2023-10-21T16:39:47.653Z,82.10
2023-10-21T16:42:14.768Z,82.70
2023-10-21T16:44:42.963Z,83.30
2023-10-21T16:47:09.984Z,83.40
2023-10-21T16:49:37.076Z,83.40
2023-10-21T16:52:04.198Z,83.90
2023-10-21T16:54:31.033Z,83.80
2023-10-21T16:56:58.100Z,83.90
2023-10-21T16:59:25.103Z,83.90
2023-10-21T17:01:52.195Z,84.40
2023-10-21T17:04:19.078Z,83.50
2023-10-21T17:06:46.100Z,83.90
2023-10-21T17:09:13.157Z,84.30
2023-10-21T17:11:40.033Z,84.60
2023-10-21T17:14:07.116Z,84.60
2023-10-21T17:16:34.123Z,85.00
2023-10-21T17:19:01.069Z,85.00
2023-10-21T17:21:28.065Z,84.50
2023-10-21T17:23:54.984Z,84.60
2023-10-21T17:26:22.788Z,86.30
2023-10-21T17:28:49.941Z,86.70
2023-10-21T17:31:19.681Z,86.70
2023-10-21T17:33:50.586Z,86.40
2023-10-21T17:36:18.420Z,86.40
2023-10-21T17:38:45.246Z,86.20
2023-10-21T17:41:12.233Z,86.00
2023-10-21T17:43:39.066Z,85.80
2023-10-21T17:46:09.524Z,86.10
2023-10-21T17:48:36.392Z,86.20
2023-10-21T17:51:06.300Z,86.70
2023-10-21T17:53:33.170Z,86.70
2023-10-21T17:56:00.292Z,86.00
2023-10-21T17:58:27.271Z,83.80
2023-10-21T18:00:54.309Z,82.20
2023-10-21T18:03:21.778Z,81.30
2023-10-21T18:05:48.694Z,80.50
2023-10-21T18:08:15.562Z,79.80
2023-10-21T18:10:42.336Z,78.40
2023-10-21T18:13:09.181Z,78.10
2023-10-21T18:15:36.057Z,77.90
2023-10-21T18:18:03.810Z,78.20
2023-10-21T18:20:30.786Z,77.80
2023-10-21T18:22:58.690Z,78.10
2023-10-21T18:25:25.784Z,78.20
2023-10-21T18:27:54.416Z,77.90
2023-10-21T18:30:21.737Z,78.30
2023-10-21T18:32:48.741Z,78.20
2023-10-21T18:35:16.791Z,78.80
2023-10-21T18:37:43.660Z,79.10
2023-10-21T18:40:11.199Z,79.00
2023-10-21T18:42:38.267Z,79.00
2023-10-21T18:45:06.141Z,78.80
2023-10-21T18:47:33.862Z,79.10
2023-10-21T18:50:00.821Z,78.70
2023-10-21T18:52:27.634Z,79.00
2023-10-21T18:54:55.590Z,78.90
2023-10-21T18:57:24.760Z,79.00
2023-10-21T18:59:54.541Z,79.30
2023-10-21T19:02:21.934Z,79.40
2023-10-21T19:04:49.152Z,79.50
2023-10-21T19:07:16.141Z,79.70
2023-10-21T19:09:43.755Z,79.50
2023-10-21T19:12:10.700Z,79.90
2023-10-21T19:14:37.712Z,78.50
2023-10-21T19:17:06.036Z,78.90
2023-10-21T19:19:34.726Z,77.40
2023-10-21T19:22:02.111Z,76.70
2023-10-21T19:24:29.737Z,77.00
2023-10-21T19:26:56.907Z,75.80
2023-10-21T19:29:24.611Z,76.10
2023-10-21T19:31:53.481Z,76.60
2023-10-21T19:34:20.838Z,77.10
2023-10-21T19:36:47.746Z,77.50
2023-10-21T19:39:14.602Z,77.50
2023-10-21T19:41:43.217Z,78.20
2023-10-21T19:44:25.247Z,76.60
2023-10-21T19:46:55.822Z,78.00
2023-10-21T19:49:24.557Z,78.80
2023-10-21T19:51:52.044Z,78.30
2023-10-21T19:54:19.199Z,77.90
2023-10-21T19:56:45.995Z,78.50
2023-10-21T19:59:12.814Z,78.70
2023-10-21T20:01:39.957Z,78.90
2023-10-21T20:04:11.437Z,80.10
2023-10-21T20:06:38.597Z,80.00
2023-10-21T20:09:05.730Z,80.20
2023-10-21T20:11:32.568Z,80.40
2023-10-21T20:13:59.365Z,82.50
2023-10-21T20:16:26.443Z,82.80
2023-10-21T20:18:54.174Z,84.00
2023-10-21T20:21:21.750Z,83.90
2023-10-21T20:23:48.595Z,83.60
2023-10-21T20:26:16.391Z,83.70
2023-10-21T20:28:44.671Z,84.50
2023-10-21T20:31:12.056Z,84.90
2023-10-21T20:33:39.344Z,86.00
2023-10-21T20:36:08.162Z,86.30
2023-10-21T20:38:35.058Z,87.20
2023-10-21T20:41:13.789Z,87.80
2023-10-21T20:43:44.779Z,88.10
2023-10-21T20:46:11.762Z,88.10
2023-10-21T20:48:40.090Z,88.40
2023-10-21T20:51:13.761Z,88.90
2023-10-21T20:53:40.820Z,89.30
2023-10-21T20:56:09.167Z,89.60
2023-10-21T20:58:36.158Z,89.90
2023-10-21T21:01:02.950Z,90.20
2023-10-21T21:03:29.898Z,90.10
2023-10-21T21:05:57.082Z,89.90
2023-10-21T21:08:23.884Z,90.00
2023-10-21T21:10:50.911Z,90.20
2023-10-21T21:13:18.432Z,90.30
2023-10-21T21:15:45.282Z,90.10
2023-10-21T21:18:12.382Z,89.60
2023-10-21T21:20:39.249Z,90.00
2023-10-21T21:23:06.141Z,90.40
2023-10-21T21:25:32.952Z,90.80
2023-10-21T21:27:59.868Z,91.00
2023-10-21T21:30:26.844Z,91.00
2023-10-21T21:32:56.807Z,91.00
2023-10-21T21:35:23.712Z,91.40
2023-10-21T21:37:51.712Z,91.10
2023-10-21T21:40:18.768Z,91.30
2023-10-21T21:42:45.615Z,91.20
2023-10-21T21:45:12.668Z,91.10
2023-10-21T21:47:39.483Z,91.30
2023-10-21T21:50:07.473Z,91.30
2023-10-21T21:52:34.687Z,91.30
2023-10-21T21:55:01.730Z,91.70
2023-10-21T21:57:28.974Z,91.40
2023-10-21T21:59:55.747Z,91.40
2023-10-21T22:02:22.531Z,91.60
2023-10-21T22:04:50.042Z,91.40
2023-10-21T22:07:20.702Z,91.40
2023-10-21T22:09:47.802Z,91.30
2023-10-21T22:12:17.624Z,91.50
2023-10-21T22:14:44.461Z,91.50
2023-10-21T22:17:11.557Z,91.60
2023-10-21T22:19:39.110Z,91.60
2023-10-21T22:22:07.024Z,92.10
2023-10-21T22:24:37.648Z,92.00
2023-10-21T22:27:10.553Z,92.10
2023-10-21T22:29:42.495Z,92.20
2023-10-21T22:32:09.794Z,92.20
2023-10-21T22:34:37.626Z,92.20
2023-10-21T22:37:05.117Z,92.10
2023-10-21T22:39:33.360Z,92.40
2023-10-21T22:42:00.819Z,92.30
2023-10-21T22:44:27.896Z,92.10
2023-10-21T22:46:54.880Z,92.10
2023-10-21T22:49:21.736Z,92.50
2023-10-21T22:51:48.520Z,92.30
2023-10-21T22:54:15.285Z,92.60
2023-10-21T22:56:42.101Z,92.40
2023-10-21T22:59:08.914Z,92.40
2023-10-21T23:01:36.105Z,92.40
2023-10-21T23:04:03.010Z,92.30
2023-10-21T23:06:30.037Z,92.10
2023-10-21T23:08:57.554Z,92.00
2023-10-21T23:11:25.219Z,92.30
2023-10-21T23:13:52.664Z,92.40
2023-10-21T23:16:20.720Z,92.60
2023-10-21T23:18:47.837Z,92.60
2023-10-21T23:21:15.496Z,92.70
2023-10-21T23:23:42.477Z,93.10
2023-10-21T23:26:11.860Z,93.20
2023-10-21T23:28:38.826Z,93.40
2023-10-21T23:31:05.799Z,93.20
2023-10-21T23:33:32.951Z,93.30
2023-10-21T23:36:07.610Z,93.20
2023-10-21T23:38:35.002Z,93.10
2023-10-21T23:41:02.910Z,92.90
2023-10-21T23:43:29.794Z,93.00
2023-10-21T23:46:03.072Z,93.00
2023-10-21T23:48:30.014Z,92.90
2023-10-21T23:50:56.963Z,92.80
2023-10-21T23:53:24.388Z,92.80
2023-10-21T23:55:51.177Z,92.70
2023-10-21T23:58:20.621Z,93.00
